This is the latest recevied weather packets stored in our database for station/object LU5DTF-1. If no packets are shown the sender has not sent any weather packets the latest 10 day(s).
| Time | Temp. | Humidity | Pressure | Rain* | Wind** | Luminosity | Snow |
|---|---|---|---|---|---|---|---|
| 1777775396 | 9.44° C | 81% | 1024.3 hPa | 0 mm | - | - | - |
| 1777775096 | 9.44° C | 81% | 1024.3 hPa | 0 mm | - | - | - |
| 1777773597 | 9.44° C | 80% | 1024.6 hPa | 0 mm | - | - | - |
| 1777771197 | 10° C | 75% | 1024.3 hPa | 0 mm | - | - | - |
| 1777770597 | 10° C | 73% | 1024.1 hPa | 0 mm | - | - | - |
| 1777763397 | 11.11° C | 67% | 1023.4 hPa | 0 mm | - | - | - |
| 1777761296 | 12.22° C | 58% | 1023 hPa | 0 mm | - | - | - |
| 1777760996 | 12.22° C | 58% | 1023 hPa | 0 mm | - | - | - |
| 1777760396 | 11.67° C | 56% | 1023 hPa | 0 mm | - | - | - |
| 1777760096 | 11.67° C | 55% | 1023.1 hPa | 0 mm | - | - | - |
| 1777759796 | 11.67° C | 55% | 1023.1 hPa | 0 mm | - | - | - |
| 1777758896 | 12.22° C | 59% | 1023.1 hPa | 0 mm | - | - | - |
| 1777758596 | 12.22° C | 60% | 1023 hPa | 0 mm | - | - | - |
| 1777758296 | 12.22° C | 63% | 1022.9 hPa | 0 mm | - | - | - |
| 1777757696 | 12.22° C | 64% | 1022.8 hPa | 0 mm | - | - | - |
| 1777757396 | 12.22° C | 64% | 1022.7 hPa | 0 mm | - | - | - |
| 1777757096 | 12.22° C | 63% | 1022.7 hPa | 0 mm | - | - | - |
| 1777756796 | 12.22° C | 62% | 1022.6 hPa | 0 mm | - | - | - |
| 1777756496 | 12.22° C | 61% | 1022.7 hPa | 0 mm | - | - | - |
| 1777756196 | 12.22° C | 60% | 1022.6 hPa | 0 mm | - | - | - |
| 1777755896 | 12.22° C | 60% | 1022.6 hPa | 0 mm | - | - | - |
| 1777755596 | 12.78° C | 58% | 1022.6 hPa | 0 mm | - | - | - |
| 1777754996 | 12.78° C | 55% | 1022.7 hPa | 0 mm | - | - | - |
| 1777753796 | 13.33° C | 52% | 1022.7 hPa | 0 mm | - | - | - |
| 1777753196 | 13.33° C | 54% | 1022.8 hPa | 0 mm | - | - | - |
* Rain latest hour (hover to see other rain measurements)
** Current wind speed in m/s (hover to see current wind gust speed)